createdAt,value
2023-04-09T00:01:41.554Z,1.23
2023-04-09T00:04:10.177Z,1.57
2023-04-09T00:06:38.754Z,2.03
2023-04-09T00:09:07.198Z,1.77
2023-04-09T00:11:36.244Z,2.03
2023-04-09T00:14:04.834Z,1.70
2023-04-09T00:16:34.827Z,1.40
2023-04-09T00:19:03.493Z,1.20
2023-04-09T00:21:32.167Z,1.80
2023-04-09T00:24:00.737Z,1.97
2023-04-09T00:26:29.381Z,1.13
2023-04-09T00:28:57.924Z,1.33
2023-04-09T00:31:26.502Z,1.30
2023-04-09T00:33:56.601Z,1.77
2023-04-09T00:36:27.093Z,1.40
2023-04-09T00:38:55.706Z,1.40
2023-04-09T00:41:24.192Z,1.13
2023-04-09T00:43:52.741Z,1.70
2023-04-09T00:46:21.317Z,1.43
2023-04-09T00:48:50.130Z,1.37
2023-04-09T00:51:20.584Z,0.90
2023-04-09T00:53:49.831Z,1.63
2023-04-09T00:56:19.755Z,1.27
2023-04-09T00:58:48.536Z,1.77
2023-04-09T01:01:17.194Z,1.23
2023-04-09T01:03:45.950Z,1.17
2023-04-09T01:06:28.974Z,0.70
2023-04-09T01:09:04.038Z,1.33
2023-04-09T01:11:39.152Z,1.63
2023-04-09T01:14:13.763Z,1.90
2023-04-09T01:16:46.021Z,1.37
2023-04-09T01:19:30.790Z,1.07
2023-04-09T01:22:01.737Z,0.80
2023-04-09T01:24:46.029Z,1.10
2023-04-09T01:27:16.201Z,1.37
2023-04-09T01:29:48.986Z,1.13
2023-04-09T01:32:20.612Z,1.47
2023-04-09T01:34:50.288Z,0.83
2023-04-09T01:37:19.242Z,1.03
2023-04-09T01:39:48.326Z,1.30
2023-04-09T01:42:18.794Z,0.60
2023-04-09T01:44:49.203Z,1.23
2023-04-09T01:47:17.882Z,0.80
2023-04-09T01:49:47.137Z,1.13
2023-04-09T01:52:15.993Z,1.23
2023-04-09T01:54:44.612Z,1.90
2023-04-09T01:57:13.056Z,1.40
2023-04-09T01:59:41.660Z,1.20
2023-04-09T02:02:18.230Z,0.87
2023-04-09T02:04:51.485Z,0.97
2023-04-09T02:07:33.872Z,0.73
2023-04-09T02:10:05.324Z,0.93
2023-04-09T02:12:37.612Z,1.43
2023-04-09T02:15:08.664Z,0.97
2023-04-09T02:17:38.870Z,1.33
2023-04-09T02:20:11.500Z,1.47
2023-04-09T02:22:40.881Z,1.00
2023-04-09T02:25:09.883Z,0.43
2023-04-09T02:27:38.412Z,1.17
2023-04-09T02:30:08.084Z,1.27
2023-04-09T02:32:37.972Z,1.40
2023-04-09T02:35:07.338Z,1.53
2023-04-09T02:37:35.938Z,0.60
2023-04-09T02:40:05.105Z,1.77
2023-04-09T02:42:33.619Z,1.27
2023-04-09T02:45:02.108Z,1.43
2023-04-09T02:47:30.659Z,1.27
2023-04-09T02:50:00.639Z,1.13
2023-04-09T02:52:29.133Z,0.90
2023-04-09T02:54:57.640Z,1.33
2023-04-09T02:57:26.150Z,1.00
2023-04-09T02:59:54.641Z,1.53
2023-04-09T03:02:23.459Z,0.67
2023-04-09T03:04:53.040Z,2.17
2023-04-09T03:07:23.406Z,1.40
2023-04-09T03:09:51.937Z,1.00
2023-04-09T03:12:20.616Z,0.90
2023-04-09T03:14:49.166Z,1.77
2023-04-09T03:17:17.666Z,1.33
2023-04-09T03:19:46.222Z,1.60
2023-04-09T03:22:14.733Z,1.50
2023-04-09T03:24:44.585Z,1.10
2023-04-09T03:27:13.039Z,1.30
2023-04-09T03:29:41.565Z,1.40
2023-04-09T03:32:10.063Z,1.13
2023-04-09T03:34:38.591Z,1.43
2023-04-09T03:37:07.109Z,1.40
2023-04-09T03:39:35.639Z,1.23
2023-04-09T03:42:05.543Z,1.30
2023-04-09T03:44:34.378Z,1.37
2023-04-09T03:47:03.277Z,1.23
2023-04-09T03:49:31.860Z,1.33
2023-04-09T03:52:00.363Z,1.40
2023-04-09T03:54:31.282Z,1.20
2023-04-09T03:56:59.833Z,1.40
2023-04-09T03:59:29.662Z,2.07
2023-04-09T04:01:58.291Z,2.67
2023-04-09T04:04:27.034Z,2.10
2023-04-09T04:06:55.806Z,0.90
2023-04-09T04:09:24.360Z,1.97
2023-04-09T04:11:52.894Z,1.27
2023-04-09T04:14:21.431Z,1.10
2023-04-09T04:16:51.254Z,0.83
2023-04-09T04:19:19.753Z,1.73
2023-04-09T04:21:48.268Z,0.70
2023-04-09T04:24:16.962Z,1.33
2023-04-09T04:26:45.476Z,0.60
2023-04-09T04:29:14.304Z,0.90
2023-04-09T04:31:43.003Z,1.37
2023-04-09T04:34:12.849Z,0.80
2023-04-09T04:36:41.354Z,1.37
2023-04-09T04:39:09.862Z,1.33
2023-04-09T04:41:38.362Z,1.77
2023-04-09T04:44:06.953Z,1.10
2023-04-09T04:46:35.479Z,1.23
2023-04-09T04:49:04.045Z,1.30
2023-04-09T04:51:34.128Z,0.83
2023-04-09T04:54:02.649Z,1.03
2023-04-09T04:56:31.281Z,1.20
2023-04-09T04:59:01.424Z,0.70
2023-04-09T05:01:29.905Z,1.13
2023-04-09T05:03:58.533Z,0.93
2023-04-09T05:06:29.661Z,0.87
2023-04-09T05:08:59.562Z,0.87
2023-04-09T05:11:28.210Z,1.27
2023-04-09T05:13:56.737Z,0.83
2023-04-09T05:16:25.507Z,1.90
2023-04-09T05:18:54.516Z,1.53
2023-04-09T05:21:23.295Z,1.07
2023-04-09T05:23:51.760Z,1.67
2023-04-09T05:26:22.651Z,0.73
2023-04-09T05:28:52.536Z,1.27
2023-04-09T05:31:21.268Z,1.20
2023-04-09T05:33:49.800Z,1.00
2023-04-09T05:36:19.260Z,1.20
2023-04-09T05:38:48.688Z,2.30
2023-04-09T05:41:17.181Z,0.50
2023-04-09T05:43:47.089Z,1.30
2023-04-09T05:46:16.060Z,1.43
2023-04-09T05:48:44.764Z,1.50
2023-04-09T05:51:13.280Z,1.47
2023-04-09T05:53:42.789Z,1.30
2023-04-09T05:56:15.692Z,1.23
2023-04-09T05:58:44.241Z,1.87
2023-04-09T06:01:14.175Z,1.03
2023-04-09T06:03:42.981Z,0.90
2023-04-09T06:06:11.590Z,1.63
2023-04-09T06:08:40.127Z,1.17
2023-04-09T06:11:11.122Z,1.50
2023-04-09T06:13:40.278Z,1.43
2023-04-09T06:16:10.239Z,1.20
2023-04-09T06:18:40.187Z,2.43
2023-04-09T06:21:10.230Z,1.83
2023-04-09T06:23:38.977Z,1.13
2023-04-09T06:26:07.585Z,1.00
2023-04-09T06:28:36.543Z,1.57
2023-04-09T06:31:05.117Z,1.80
2023-04-09T06:33:33.658Z,1.27
2023-04-09T06:36:03.560Z,1.87
2023-04-09T06:38:32.201Z,1.67
2023-04-09T06:41:00.808Z,2.30
2023-04-09T06:43:29.289Z,2.20
2023-04-09T06:45:57.861Z,1.90
2023-04-09T06:48:26.345Z,1.63
2023-04-09T06:50:54.913Z,1.53
2023-04-09T06:53:25.018Z,1.80
2023-04-09T06:55:54.890Z,1.63
2023-04-09T06:58:24.713Z,2.63
2023-04-09T07:00:53.309Z,1.77
2023-04-09T07:03:22.091Z,1.93
2023-04-09T07:05:50.644Z,1.83
2023-04-09T07:08:19.232Z,2.63
2023-04-09T07:10:49.089Z,1.60
2023-04-09T07:13:17.637Z,1.23
2023-04-09T07:15:46.226Z,1.83
2023-04-09T07:18:14.795Z,1.77
2023-04-09T07:20:43.335Z,2.73
2023-04-09T07:23:12.018Z,1.23
2023-04-09T07:25:40.636Z,2.20
2023-04-09T07:28:11.486Z,1.60
2023-04-09T07:30:42.129Z,1.50
2023-04-09T07:33:10.776Z,3.27
2023-04-09T07:35:39.455Z,3.60
2023-04-09T07:38:08.168Z,1.67
2023-04-09T07:40:37.742Z,1.73
2023-04-09T07:43:07.565Z,1.43
2023-04-09T07:45:37.628Z,2.17
2023-04-09T07:48:06.394Z,2.33
2023-04-09T07:50:34.954Z,2.17
2023-04-09T07:53:03.929Z,1.87
2023-04-09T07:55:32.470Z,2.57
2023-04-09T07:58:00.976Z,1.83
2023-04-09T08:00:29.561Z,2.60
2023-04-09T08:02:59.766Z,2.07
2023-04-09T08:05:28.900Z,2.77
2023-04-09T08:07:57.498Z,2.90
2023-04-09T08:10:26.104Z,3.43
2023-04-09T08:12:54.740Z,2.60
2023-04-09T08:15:23.494Z,3.57
2023-04-09T08:17:52.389Z,2.17
2023-04-09T08:20:22.554Z,2.80
2023-04-09T08:22:51.343Z,2.83
2023-04-09T08:25:20.235Z,2.63
2023-04-09T08:27:48.793Z,3.83
2023-04-09T08:30:18.846Z,2.53
2023-04-09T08:32:47.736Z,2.97
2023-04-09T08:35:16.444Z,3.00
2023-04-09T08:37:46.795Z,3.33
2023-04-09T08:40:15.696Z,2.70
2023-04-09T08:42:46.410Z,3.03
2023-04-09T08:45:15.387Z,2.70
2023-04-09T08:47:44.821Z,2.97
2023-04-09T08:50:14.201Z,2.87
2023-04-09T08:52:43.734Z,2.90
2023-04-09T08:55:14.048Z,2.83
2023-04-09T08:57:43.550Z,2.37
2023-04-09T09:00:13.394Z,2.57
2023-04-09T09:03:02.852Z,2.93
2023-04-09T09:05:38.506Z,3.00
2023-04-09T09:08:08.104Z,3.43
2023-04-09T09:10:42.500Z,3.13
2023-04-09T09:13:25.810Z,2.80
2023-04-09T09:15:56.441Z,2.33
2023-04-09T09:18:40.392Z,3.17
2023-04-09T09:21:12.787Z,2.97
2023-04-09T09:23:42.413Z,2.97
2023-04-09T09:26:18.111Z,2.77
2023-04-09T09:28:48.132Z,1.97
2023-04-09T09:31:18.129Z,2.30
2023-04-09T09:33:48.242Z,2.67
2023-04-09T09:36:17.190Z,2.20
2023-04-09T09:38:56.241Z,2.20
2023-04-09T09:41:27.239Z,2.30
2023-04-09T09:43:55.799Z,1.90
2023-04-09T09:46:26.520Z,2.37
2023-04-09T09:48:55.456Z,2.40
2023-04-09T09:51:29.049Z,2.47
2023-04-09T09:53:58.516Z,2.40
2023-04-09T09:56:33.410Z,2.77
2023-04-09T09:59:08.439Z,2.90
2023-04-09T10:01:37.699Z,2.43
2023-04-09T10:04:08.642Z,2.27
2023-04-09T10:06:38.687Z,2.67
2023-04-09T10:09:07.811Z,3.10
2023-04-09T10:11:42.403Z,2.67
2023-04-09T10:14:11.634Z,1.37
2023-04-09T10:16:40.533Z,1.43
2023-04-09T10:19:14.112Z,2.30
2023-04-09T10:21:53.520Z,2.07
2023-04-09T10:24:22.982Z,2.47
2023-04-09T10:26:56.170Z,2.33
2023-04-09T10:29:29.816Z,2.30
2023-04-09T10:32:06.823Z,2.37
2023-04-09T10:34:39.295Z,2.07
2023-04-09T10:37:10.512Z,1.63
2023-04-09T10:39:42.892Z,1.83
2023-04-09T10:42:16.389Z,1.80
2023-04-09T10:44:46.095Z,2.37
2023-04-09T10:47:34.532Z,1.90
2023-04-09T10:50:20.778Z,2.47
2023-04-09T10:52:53.894Z,1.47
2023-04-09T10:55:37.416Z,2.20
2023-04-09T10:58:22.903Z,1.63
2023-04-09T11:00:52.555Z,1.70
2023-04-09T11:03:27.420Z,1.87
2023-04-09T11:06:02.638Z,2.10
2023-04-09T11:08:33.270Z,1.60
2023-04-09T11:11:02.485Z,1.73
2023-04-09T11:13:34.077Z,2.07
2023-04-09T11:16:06.844Z,2.10
2023-04-09T11:18:37.038Z,2.13
2023-04-09T11:21:06.020Z,2.37
2023-04-09T11:23:35.211Z,1.83
2023-04-09T11:26:03.812Z,1.47
2023-04-09T11:28:35.609Z,2.00
2023-04-09T11:31:07.020Z,2.50
2023-04-09T11:33:36.116Z,2.07
2023-04-09T11:36:07.590Z,2.10
2023-04-09T11:38:37.854Z,1.90
2023-04-09T11:41:06.665Z,1.97
2023-04-09T11:43:38.130Z,2.47
2023-04-09T11:46:07.845Z,1.40
2023-04-09T11:48:36.469Z,2.00
2023-04-09T11:51:05.497Z,2.07
2023-04-09T11:53:34.042Z,1.80
2023-04-09T11:56:02.855Z,2.37
2023-04-09T11:58:32.116Z,2.33
2023-04-09T12:01:02.045Z,3.10
2023-04-09T12:03:32.946Z,2.50
2023-04-09T12:06:03.452Z,2.17
2023-04-09T12:08:34.563Z,1.93
2023-04-09T12:11:11.315Z,2.70
2023-04-09T12:13:43.014Z,2.80
2023-04-09T12:16:13.363Z,2.70
2023-04-09T12:18:42.517Z,1.83
2023-04-09T12:21:11.196Z,3.13
2023-04-09T12:23:39.729Z,2.57
2023-04-09T12:26:08.326Z,2.50
2023-04-09T12:28:36.978Z,2.23
2023-04-09T12:31:05.947Z,1.57
2023-04-09T12:33:38.976Z,2.50
2023-04-09T12:36:07.577Z,2.43
2023-04-09T12:38:36.184Z,2.93
2023-04-09T12:41:04.917Z,2.73
2023-04-09T12:43:33.376Z,1.80
2023-04-09T12:46:02.026Z,2.20
2023-04-09T12:48:30.610Z,2.20
2023-04-09T12:51:00.595Z,2.00
2023-04-09T12:53:29.143Z,2.17
2023-04-09T12:55:57.674Z,2.20
2023-04-09T12:58:26.145Z,3.23
2023-04-09T13:00:56.767Z,2.57
2023-04-09T13:03:26.118Z,2.30
2023-04-09T13:05:54.843Z,2.70
2023-04-09T13:08:25.317Z,1.80
2023-04-09T13:10:53.773Z,2.87
2023-04-09T13:13:22.639Z,2.07
2023-04-09T13:15:52.134Z,3.13
2023-04-09T13:18:20.719Z,3.27
2023-04-09T13:20:49.173Z,3.07
2023-04-09T13:23:17.376Z,2.50
2023-04-09T13:25:46.951Z,2.77
2023-04-09T13:28:15.171Z,2.80
2023-04-09T13:30:43.415Z,2.60
2023-04-09T13:33:11.684Z,3.30
2023-04-09T13:35:40.358Z,3.60
2023-04-09T13:38:08.567Z,3.60
2023-04-09T13:40:37.016Z,2.83
2023-04-09T13:43:06.757Z,3.13
2023-04-09T13:45:35.355Z,2.80
2023-04-09T13:48:03.757Z,2.47
2023-04-09T13:50:32.098Z,3.63
2023-04-09T13:53:02.916Z,3.23
2023-04-09T13:55:31.706Z,3.03
2023-04-09T13:58:02.063Z,3.13
2023-04-09T14:00:32.446Z,3.33
2023-04-09T14:03:01.669Z,2.83
2023-04-09T14:05:29.974Z,3.13
2023-04-09T14:07:58.189Z,3.30
2023-04-09T14:10:27.576Z,2.93
2023-04-09T14:12:56.236Z,3.10
2023-04-09T14:15:24.873Z,3.17
2023-04-09T14:17:54.578Z,3.30
2023-04-09T14:20:24.552Z,2.67
2023-04-09T14:22:52.779Z,2.80
2023-04-09T14:25:21.002Z,2.57
2023-04-09T14:27:49.273Z,2.93
2023-04-09T14:30:18.553Z,2.70
2023-04-09T14:32:46.802Z,2.63
2023-04-09T14:35:17.618Z,3.20
2023-04-09T14:37:46.850Z,3.00
2023-04-09T14:40:15.199Z,2.70
2023-04-09T14:42:43.428Z,3.27
2023-04-09T14:45:12.726Z,2.80
2023-04-09T14:47:40.953Z,2.90
2023-04-09T14:50:12.806Z,3.20
2023-04-09T14:52:42.580Z,2.97
2023-04-09T14:55:12.411Z,2.93
2023-04-09T14:57:41.825Z,3.40
2023-04-09T15:00:13.072Z,3.40
2023-04-09T15:02:41.883Z,3.20
2023-04-09T15:05:12.281Z,3.60
2023-04-09T15:07:41.932Z,3.00
2023-04-09T15:10:11.382Z,3.10
2023-04-09T15:12:39.585Z,3.30
2023-04-09T15:15:12.584Z,2.83
2023-04-09T15:17:40.992Z,3.10
2023-04-09T15:20:10.433Z,3.33
2023-04-09T15:22:38.690Z,2.83
2023-04-09T15:25:09.164Z,3.43
2023-04-09T15:27:37.715Z,2.67
2023-04-09T15:30:07.888Z,3.53
2023-04-09T15:32:36.164Z,2.90
2023-04-09T15:35:04.655Z,3.23
2023-04-09T15:37:32.789Z,3.00
2023-04-09T15:40:00.999Z,2.93
2023-04-09T15:42:30.524Z,2.37
2023-04-09T15:44:58.728Z,3.57
2023-04-09T15:47:27.052Z,3.87
2023-04-09T15:49:55.912Z,3.03
2023-04-09T15:52:24.096Z,3.53
2023-04-09T15:54:52.280Z,2.93
2023-04-09T15:57:21.945Z,2.77
2023-04-09T15:59:52.072Z,3.47
2023-04-09T16:02:20.618Z,2.67
2023-04-09T16:04:48.928Z,2.40
2023-04-09T16:07:17.466Z,2.97
2023-04-09T16:09:46.551Z,3.20
2023-04-09T16:12:14.716Z,2.43
2023-04-09T16:14:43.223Z,2.33
2023-04-09T16:17:19.084Z,3.33
2023-04-09T16:19:47.401Z,3.27
2023-04-09T16:22:15.778Z,2.77
2023-04-09T16:24:44.708Z,2.10
2023-04-09T16:27:13.431Z,2.43
2023-04-09T16:29:42.412Z,2.60
2023-04-09T16:32:12.132Z,2.63
2023-04-09T16:34:40.768Z,2.53
2023-04-09T16:37:09.700Z,2.37
2023-04-09T16:39:38.089Z,3.37
2023-04-09T16:42:07.104Z,3.47
2023-04-09T16:44:35.723Z,3.40
2023-04-09T16:47:04.156Z,2.70
2023-04-09T16:49:33.705Z,2.67
2023-04-09T16:52:02.139Z,2.57
2023-04-09T16:54:30.893Z,2.50
2023-04-09T16:56:59.099Z,2.77
2023-04-09T16:59:27.383Z,3.07
2023-04-09T17:01:55.813Z,2.93
2023-04-09T17:04:24.091Z,3.57
2023-04-09T17:06:53.701Z,2.70
2023-04-09T17:09:21.853Z,2.50
2023-04-09T17:11:52.899Z,3.07
2023-04-09T17:14:21.495Z,3.13
2023-04-09T17:16:50.001Z,3.93
2023-04-09T17:19:18.536Z,3.73
2023-04-09T17:21:46.739Z,4.00
2023-04-09T17:24:16.639Z,3.23
2023-04-09T17:26:44.827Z,4.40
2023-04-09T17:29:13.169Z,2.27
2023-04-09T17:31:41.654Z,3.40
2023-04-09T17:34:10.836Z,3.73
2023-04-09T17:36:39.036Z,3.43
2023-04-09T17:39:07.422Z,3.23
2023-04-09T17:41:37.626Z,3.57
2023-04-09T17:44:06.604Z,3.27
2023-04-09T17:46:36.010Z,3.93
2023-04-09T17:49:04.675Z,4.60
2023-04-09T17:51:33.006Z,4.77
2023-04-09T17:54:01.235Z,3.40
2023-04-09T17:56:29.436Z,3.87
2023-04-09T17:58:59.022Z,3.07
2023-04-09T18:01:27.312Z,4.00
2023-04-09T18:03:55.708Z,3.87
2023-04-09T18:06:24.166Z,3.70
2023-04-09T18:08:53.420Z,3.20
2023-04-09T18:11:21.696Z,3.77
2023-04-09T18:13:50.056Z,3.10
2023-04-09T18:16:20.997Z,3.90
2023-04-09T18:18:49.358Z,3.07
2023-04-09T18:21:18.121Z,3.93
2023-04-09T18:23:46.427Z,3.43
2023-04-09T18:26:14.612Z,3.43
2023-04-09T18:28:42.885Z,3.80
2023-04-09T18:31:12.951Z,3.00
2023-04-09T18:33:42.573Z,3.40
2023-04-09T18:36:10.973Z,3.13
2023-04-09T18:38:39.409Z,2.87
2023-04-09T18:41:08.181Z,2.67
2023-04-09T18:43:36.330Z,2.90
2023-04-09T18:46:04.811Z,3.80
2023-04-09T18:48:33.052Z,3.03
2023-04-09T18:51:03.042Z,2.77
2023-04-09T18:53:31.668Z,2.73
2023-04-09T18:55:59.943Z,2.77
2023-04-09T18:58:28.184Z,3.33
2023-04-09T19:00:56.898Z,3.70
2023-04-09T19:03:26.649Z,2.87
2023-04-09T19:05:56.271Z,3.00
2023-04-09T19:08:25.952Z,4.33
2023-04-09T19:10:55.524Z,4.27
2023-04-09T19:13:23.709Z,4.53
2023-04-09T19:15:52.220Z,4.00
2023-04-09T19:18:20.470Z,4.53
2023-04-09T19:20:48.710Z,3.23
2023-04-09T19:23:16.951Z,2.90
2023-04-09T19:25:51.096Z,3.70
2023-04-09T19:28:19.757Z,3.57
2023-04-09T19:30:50.259Z,3.30
2023-04-09T19:33:18.470Z,4.10
2023-04-09T19:35:49.417Z,3.30
2023-04-09T19:38:19.089Z,2.60
2023-04-09T19:40:48.950Z,3.27
2023-04-09T19:43:17.206Z,4.03
2023-04-09T19:45:45.836Z,3.57
2023-04-09T19:48:14.204Z,2.50
2023-04-09T19:50:43.095Z,2.13
2023-04-09T19:53:12.077Z,2.30
2023-04-09T19:55:40.319Z,2.73
2023-04-09T19:58:09.853Z,2.27
2023-04-09T20:00:38.194Z,2.10
2023-04-09T20:03:07.068Z,2.83
2023-04-09T20:05:35.832Z,3.70
2023-04-09T20:08:04.465Z,2.70
2023-04-09T20:10:32.800Z,3.67
2023-04-09T20:13:01.631Z,2.97
2023-04-09T20:15:31.436Z,3.63
2023-04-09T20:17:59.788Z,3.47
2023-04-09T20:20:28.045Z,3.17
2023-04-09T20:22:56.843Z,3.03
2023-04-09T20:25:25.970Z,4.20
2023-04-09T20:27:55.172Z,3.33
2023-04-09T20:30:23.577Z,3.27
2023-04-09T20:32:53.210Z,4.00
2023-04-09T20:35:21.593Z,3.23
2023-04-09T20:37:49.979Z,3.77
2023-04-09T20:40:18.370Z,3.23
2023-04-09T20:42:46.620Z,4.43
2023-04-09T20:45:14.931Z,4.50
2023-04-09T20:47:45.577Z,4.23
2023-04-09T20:50:15.899Z,2.77
2023-04-09T20:52:44.843Z,2.73
2023-04-09T20:55:13.461Z,3.13
2023-04-09T20:57:42.359Z,2.97
2023-04-09T21:00:12.276Z,3.13
2023-04-09T21:02:41.534Z,2.43
2023-04-09T21:05:21.756Z,2.97
2023-04-09T21:07:52.068Z,2.13
2023-04-09T21:10:20.903Z,2.80
2023-04-09T21:12:49.414Z,2.93
2023-04-09T21:15:17.788Z,2.03
2023-04-09T21:17:46.267Z,3.43
2023-04-09T21:20:16.671Z,3.40
2023-04-09T21:22:45.091Z,3.03
2023-04-09T21:25:15.573Z,3.53
2023-04-09T21:27:43.972Z,4.13
2023-04-09T21:30:13.229Z,3.37
2023-04-09T21:32:41.574Z,4.27
2023-04-09T21:35:10.060Z,3.03
2023-04-09T21:37:38.579Z,2.60
2023-04-09T21:40:08.763Z,3.73
2023-04-09T21:42:38.369Z,4.10
2023-04-09T21:45:08.019Z,4.23
2023-04-09T21:47:36.450Z,4.30
2023-04-09T21:50:05.256Z,4.10
2023-04-09T21:52:34.349Z,3.40
2023-04-09T21:55:03.042Z,3.87
2023-04-09T21:57:31.496Z,2.70
2023-04-09T22:00:02.232Z,4.17
2023-04-09T22:02:30.757Z,3.20
2023-04-09T22:05:00.943Z,3.37
2023-04-09T22:07:29.621Z,2.63
2023-04-09T22:09:58.635Z,3.87
2023-04-09T22:12:26.979Z,2.30
2023-04-09T22:14:55.364Z,3.53
2023-04-09T22:17:24.956Z,2.47
2023-04-09T22:19:53.290Z,3.20
2023-04-09T22:22:21.673Z,3.40
2023-04-09T22:24:49.923Z,3.73
2023-04-09T22:27:18.150Z,2.77
2023-04-09T22:29:46.381Z,3.60
2023-04-09T22:32:16.362Z,3.60
2023-04-09T22:34:46.552Z,3.13
2023-04-09T22:37:17.029Z,2.97
2023-04-09T22:39:45.614Z,2.30
2023-04-09T22:42:14.003Z,2.43
2023-04-09T22:44:42.159Z,2.47
2023-04-09T22:47:10.367Z,2.57
2023-04-09T22:49:38.645Z,2.13
2023-04-09T22:52:08.457Z,2.93
2023-04-09T22:54:37.905Z,2.93
2023-04-09T22:57:06.304Z,2.47
2023-04-09T23:02:07.624Z,3.13
2023-04-09T23:04:36.765Z,2.17
2023-04-09T23:07:05.105Z,2.90
2023-04-09T23:09:34.779Z,3.40
2023-04-09T23:12:03.248Z,3.00
2023-04-09T23:14:31.499Z,2.27
2023-04-09T23:16:59.788Z,2.83
2023-04-09T23:19:28.043Z,2.40
2023-04-09T23:21:56.267Z,2.30
2023-04-09T23:24:24.502Z,2.27
2023-04-09T23:26:54.118Z,2.07
2023-04-09T23:29:22.632Z,2.77
2023-04-09T23:31:50.974Z,3.87
2023-04-09T23:34:19.284Z,2.03
2023-04-09T23:36:47.467Z,2.67
2023-04-09T23:39:15.738Z,2.47
2023-04-09T23:41:43.911Z,2.37
2023-04-09T23:44:13.495Z,2.13
2023-04-09T23:46:41.930Z,1.50
2023-04-09T23:49:10.399Z,2.03
2023-04-09T23:51:38.573Z,1.77
2023-04-09T23:54:07.058Z,2.07
2023-04-09T23:56:35.325Z,2.30
2023-04-09T23:59:03.499Z,3.80
